Pagina principale
METAR-TAF:

METAR-TAF

Aeroporti :

Aeroporto di Corfù-Giovanni Capodistria

Corfù, Grecia

latitudine: 39-37N, longitudine: 019-55E, altezza: 2 m

Osservazione

Il bollettino è stato emesso 10 minuti fa, alle 06:20 UTC
Vento calmo
Temperature 24°C
Umidità 65%
Pressione 1015 hPa
Visibilità 10 km o più
nessuna nube inferiore a 1500 m e nessun cumulonembo

METAR: LGKR 190620Z 00000KT CAVOK 24/17 Q1015 NOSIG

Ora: 09:30 (06:30 UTC)

Previsione

Il bollettino è stato emesso 1 ora e 30 minuti fa, alle 05:00 UTC
Previsione valida dal 19 alle 06 UTC al 20 alle 06 UTC
Vento 5 kt da direzioni variabili
Visibilità 10 km o più
Poco nuvoloso ad un'altezza di 1800 ft

TAF: LGKR 190500Z 1906/2006 VRB05KT 9999 FEW018

Osservazioni e previsioni meteorologiche di più di 4000 aeroporti (messaggi METAR e TAF).

Le stazioni disponibili sono rappresentate dai dischi gialli e rossi sulla carta.

Puntare il mouse per vedere il nome della stazione.

Clicca sopra per visualizzare le osservazioni e previsioni meteorologiche.

Per cambiare la mappa : fare clic sui pulsanti verdi con una croce nera per ingrandire, il pulsante verde con un trattino per diminuire, o sulla freccia verde per le mappe adiacenti.


METAR-TAF: